< < Back
Terminal Aerodrome Forecast


Current Version              Previous Versions:   1  2  3  4  5  6  7  8  9  

Terminal Aerodrome Forecast

637
FTUS42 KTAE 251100
TAFABY
TAF
KABY 251138Z 2512/2612 21005KT P6SM SKC
     FM251500 25005KT P6SM SCT050 SCT250
     FM251800 25008KT P6SM VCTS BKN050CB
     FM260000 22005KT P6SM BKN250=



Latest METAR

588
SAUS70 KWBC 260500 RRE
MTRABY
METAR KABY 260453Z 00000KT 10SM CLR 26/24 A3004 RMK AO2 SLP170 T02610239
403440233


USA.gov is the U.S. government's official web portal to all federal, state and local government web resources and services.